Flight Track Log - Related Links

Times and Time Zones

All times are in EDT time to prevent confusion due to time zone crossing. See the SWA34 flight status page for this flight to view local times or setup timezone preferences in your user account.

Time Position Orientation Groundspeed Altitude Reporting Facility
EDT Latitude Longitude Course Direction KTS MPH feet Rate Location/Type
Mon 10:35:49 AM 36.9742 -76.2419 338° Northwest 264 304 4,500  Level Washington Center
Mon 10:36:49 AM 36.9819 -76.3408 276° West 277 319 7,300 3,025 Climbing Washington Center
Mon 10:37:50 AM 36.9522 -76.4314 248° West 277 319 10,600 2,430 Climbing Washington Center
Mon 10:38:50 AM 36.9097 -76.5347 243° Southwest 301 346 12,200 2,225 Climbing Washington Center
Mon 10:40:00 AM 36.8334 -76.6347 226° Southwest  Level FlightAware Approximate
Mon 10:41:50 AM 36.7708 -76.8728 242° Southwest 369 425 19,500  Level Washington Center
Mon 10:43:00 AM 36.7246 -76.9981 244° Southwest  Level Estimated
Mon 10:44:48 AM 36.6100 -77.2375 233° Southwest 406 467 24,700  Level Washington Center
Mon 10:46:00 AM 36.5624 -77.3661 242° Southwest  Level Estimated
Mon 10:46:49 AM 36.4917 -77.4858 242° Southwest 418 481 26,000  Level Washington Center
Mon 10:47:00 AM 36.5573 -77.3867 242° Southwest  Level Estimated
Mon 10:48:00 AM 36.4316 -77.6037 238° Southwest  Level FlightAware Approximate
Mon 10:49:48 AM 36.3161 -77.8606 213° Southwest 418 481 29,900  Level Washington Center
Mon 10:50:00 AM 36.4443 -77.7466 233° Southwest  Level Estimated
Mon 10:51:50 AM 36.1500 -78.0356 220° Southwest 398 458 32,600  Level Washington Center
Mon 10:53:00 AM 36.0575 -78.1105 213° Southwest  Level FlightAware Approximate
Mon 10:54:49 AM 35.8842 -78.2658 215° Southwest 393 452 36,000  Level Washington Center
Mon 10:55:00 AM 35.9744 -78.1772 213° Southwest  Level FlightAware Approximate
Mon 10:55:49 AM 35.7969 -78.3450 216° Southwest 393 452 36,000  Level Washington Center
Mon 10:56:50 AM 35.7094 -78.4186 214° Southwest 388 447 36,000  Level Washington Center
Mon 10:57:50 AM 35.6222 -78.4922 214° Southwest 388 447 36,000  Level Washington Center
Mon 10:58:48 AM 35.5328 -78.5681 215° Southwest 393 452 36,000  Level Washington Center
Mon 10:59:49 AM 35.4539 -78.6339 214° Southwest 387 445 36,000  Level Washington Center
Mon 11:00:00 AM 35.5101 -78.5723 215° Southwest  Level FlightAware Approximate
Mon 11:01:00 AM 35.3611 -78.7112 214° Southwest  Level FlightAware Approximate
Mon 11:01:50 AM 35.2789 -78.7850 214° Southwest 392 451 36,000  Level Washington Center
Mon 11:03:00 AM 35.1869 -78.8601 214° Southwest  Level FlightAware Approximate
Mon 11:03:48 AM 35.1081 -78.9281 214° Southwest 387 445 36,000  Level Washington Center
Mon 11:05:00 AM 35.0129 -79.0040 213° Southwest  Level FlightAware Approximate
Mon 11:06:50 AM 34.8364 -79.1519 212° Southwest 392 451 36,000  Level Jacksonville Center
Mon 11:08:00 AM 34.7454 -79.2283 215° Southwest  Level FlightAware Approximate
Mon 11:08:50 AM 34.6636 -79.2983 215° Southwest 387 445 36,000  Level Jacksonville Center
Mon 11:09:50 AM 34.6092 -79.3736 229° Southwest 387 445 36,000  Level Jacksonville Center
Mon 11:10:50 AM 34.5500 -79.4919 239° Southwest 382 440 36,000  Level Jacksonville Center
Mon 11:11:50 AM 34.5008 -79.6072 243° Southwest 387 445 36,000  Level Jacksonville Center
Mon 11:12:00 AM 34.4656 -79.4597 212° Southwest  Level FlightAware Approximate
Mon 11:12:50 AM 34.4583 -79.7422 249° West 387 445 36,000  Level Jacksonville Center
Mon 11:13:50 AM 34.4133 -79.8597 245° Southwest 387 445 36,000  Level Jacksonville Center
Mon 11:14:50 AM 34.3681 -79.9769 245° Southwest 387 445 36,000  Level Jacksonville Center
Mon 11:16:00 AM 34.3119 -80.1011 241° Southwest  Level FlightAware Approximate
Mon 11:16:50 AM 34.2772 -80.2036 241° Southwest 395 455 36,000  Level Jacksonville Center
Mon 11:18:00 AM 34.2148 -80.3232 238° Southwest  Level FlightAware Approximate
Mon 11:18:50 AM 34.1819 -80.4453 238° Southwest 395 455 36,000  Level Jacksonville Center
Mon 11:19:50 AM 34.1322 -80.5669 244° Southwest 401 461 36,000  Level Jacksonville Center
Mon 11:21:50 AM 34.0344 -80.8203 245° Southwest 406 467 36,000  Level Jacksonville Center
Mon 11:23:00 AM 33.9817 -80.9462 243° Southwest  Level FlightAware Approximate
Mon 11:24:50 AM 33.8833 -81.1864 243° Southwest 394 453 36,000  Level Jacksonville Center
Mon 11:27:00 AM 33.8738 -81.3368 266° West  Level Estimated
Mon 11:27:45 AM 33.7475 -81.5156 266° West 390 449 36,000  Level Atlanta Center
Mon 11:29:00 AM 33.7435 -81.6661 268° West  Level Estimated
Mon 11:29:45 AM 33.6497 -81.7506 268° West 390 449 36,000  Level Atlanta Center
Mon 11:30:00 AM 33.6627 -81.6982 243° Southwest  Level FlightAware Approximate
Mon 11:30:45 AM 33.6122 -81.8736 250° West 390 449 36,000  Level Atlanta Center
Mon 11:31:45 AM 33.5750 -82.0017 251° West 395 455 35,300 -850 Descending Atlanta Center
Mon 11:32:45 AM 33.5350 -82.1247 249° West 401 461 34,300 -431 Descending Atlanta Center
Mon 11:34:00 AM 33.5335 -82.2725 269° West  Level FlightAware Approximate
Mon 11:34:46 AM 33.4886 -82.3775 269° West 396 456 34,000  Level Atlanta Center
Mon 11:35:46 AM 33.4675 -82.5072 259° West 396 456 34,000  Level Atlanta Center
Mon 11:36:45 AM 33.4419 -82.6397 257° West 396 456 34,000 -958 Level Atlanta Center
Mon 11:37:45 AM 33.4161 -82.7769 257° West 396 456 32,100 -2,182 Descending Atlanta Center
Mon 11:38:46 AM 33.3925 -82.9017 257° West 390 449 29,600 -2,430 Descending Atlanta Center
Mon 11:39:46 AM 33.3706 -83.0189 257° West 380 437 27,200 -2,212 Descending Atlanta Center
Mon 11:41:00 AM 33.3460 -83.1619 255° West  Level FlightAware Approximate
Mon 11:41:45 AM 33.3283 -83.2358 255° West 338 389 23,000  Level Atlanta Center
Mon 11:42:45 AM 33.3081 -83.3353 256° West 311 358 21,000 -2,000 Descending Atlanta Center
Mon 11:44:00 AM 33.2768 -83.4778 255° West  Level FlightAware Approximate
Mon 11:44:45 AM 33.2714 -83.5344 255° West 311 358 17,000  Level Atlanta Center
Mon 11:46:00 AM 33.2357 -83.6754 253° West  Level FlightAware Approximate
Mon 11:47:12 AM 33.2333 -83.7500 253° West 277 319 12,600  Level Atlanta TRACON
Mon 11:48:12 AM 33.2333 -83.8333 270° West 275 316 11,700 -1,400 Descending Atlanta TRACON
Mon 11:49:12 AM 33.2833 -83.9167 306° West 283 326 9,800 -1,660 Descending Atlanta TRACON
Mon 11:49:46 AM 33.3100 -83.9469 317° Northwest 263 303 9,100 -1,742 Descending Atlanta Center
Mon 11:50:45 AM 33.3683 -83.9992 323° Northwest 269 310 7,100 -2,000 Descending Atlanta Center
Mon 11:51:46 AM 33.4372 -84.0364 336° Northwest 269 310 5,100 -1,800 Descending Atlanta Center
Mon 11:52:45 AM 33.5061 -84.0761 334° Northwest 269 310 3,500 -1,050 Descending Atlanta Center
Mon 11:53:46 AM 33.5814 -84.1136 337° Northwest 269 310 3,000 -250 Descending Atlanta Center
Mon 11:54:45 AM 33.6250 -84.1661 315° West 230 265 3,000 -146 Level Atlanta Center
Mon 11:56:00 AM 33.6314 -84.3079 270° West  Level Estimated
Mon 11:57:12 AM 33.6333 -84.3333 270° West 170 196 2,500  Level Atlanta TRACON
Mon 11:59:00 AM 33.6367 -84.4279 239° Southwest  Level Estimated
Mon 12:06:00 PM 33.6367 -84.4279 64° Northeast  Level Estimated
Mon 12:07:00 PM 33.6367 -84.4279 64° Northeast  Level Estimated
Mon 12:08:00 PM 33.6367 -84.4279 64° Northeast  Level Estimated
Mon 12:09:00 PM 33.6367 -84.4279 64° Northeast  Level Estimated

Login

Don't have an account? Register now (free) for customized features, flight alerts, and more!